Time;durP1;ratioP1;P1;durP2;ratioP2;P2;SDS_P1;SDS_P2;PMS_P1;PMS_P2;Temp;Humidity;BMP_temperature;BMP_pressure;BME280_temperature;BME280_humidity;BME280_pressure;Samples;Min_cycle;Max_cycle;Signal;HPM_P1;HPM_P2
2022/10/05 00:02:21;;;;;;;5.28;3.08;;;16.50;96.10;;;;;;9964085;29;21110;-62
2022/10/05 00:07:40;;;;;;;5.93;2.95;;;16.50;96.10;;;;;;9962542;29;20038;-64
2022/10/05 00:12:59;;;;;;;6.93;3.80;;;16.50;96.10;;;;;;9947734;29;20054;-62
2022/10/05 00:18:20;;;;;;;4.07;3.17;;;16.50;96.10;;;;;;9959228;29;20039;-64
2022/10/05 00:23:40;;;;;;;5.95;3.25;;;16.50;96.10;;;;;;9960971;29;20046;-63
2022/10/05 00:29:00;;;;;;;3.72;2.90;;;16.50;96.10;;;;;;9963694;29;20054;-63
2022/10/05 00:34:19;;;;;;;5.10;3.25;;;16.50;96.10;;;;;;9962962;29;20197;-62
2022/10/05 00:39:39;;;;;;;5.18;3.40;;;16.50;96.10;;;;;;9955510;29;20031;-65
2022/10/05 00:45:17;;;;;;;6.55;3.15;;;16.50;96.10;;;;;;9946971;29;20046;-63
2022/10/05 00:50:43;;;;;;;4.07;2.72;;;16.50;96.10;;;;;;9958835;29;20038;-62
2022/10/05 00:56:41;;;;;;;5.07;3.20;;;16.50;96.20;;;;;;9963744;29;20022;-62
2022/10/05 01:02:32;;;;;;;4.60;3.08;;;16.50;96.20;;;;;;9946070;29;20038;-64
2022/10/05 01:08:01;;;;;;;5.30;3.42;;;16.40;96.10;;;;;;9954090;29;20496;-63
2022/10/05 01:13:49;;;;;;;4.47;3.15;;;16.40;96.20;;;;;;9960589;29;20126;-64
2022/10/05 01:19:32;;;;;;;4.13;2.95;;;16.40;96.20;;;;;;9939368;29;20031;-62
2022/10/05 01:25:36;;;;;;;4.38;2.80;;;16.40;96.20;;;;;;9959651;29;20043;-64
2022/10/05 01:31:16;;;;;;;4.47;2.95;;;16.40;96.20;;;;;;9953748;29;20129;-63
2022/10/05 01:36:58;;;;;;;4.05;3.22;;;16.40;96.20;;;;;;9957187;29;20042;-62
2022/10/05 01:42:33;;;;;;;6.70;3.10;;;16.40;96.20;;;;;;9956576;29;20038;-63
2022/10/05 01:48:19;;;;;;;4.07;2.92;;;16.40;96.20;;;;;;9945028;29;20038;-63
2022/10/05 01:54:04;;;;;;;5.65;3.15;;;16.40;96.30;;;;;;9964982;29;20038;-62
2022/10/05 01:59:46;;;;;;;4.47;3.42;;;16.40;96.30;;;;;;9967942;29;20424;-62
2022/10/05 02:05:19;;;;;;;5.22;3.20;;;16.40;96.30;;;;;;9963611;29;20137;-62
2022/10/05 02:11:04;;;;;;;4.22;3.38;;;16.40;96.30;;;;;;9966940;29;20286;-62
2022/10/05 02:16:35;;;;;;;5.35;3.20;;;16.40;96.30;;;;;;9964232;29;20034;-63
2022/10/05 02:22:12;;;;;;;5.85;3.55;;;16.30;96.30;;;;;;9963447;29;20141;-62
2022/10/05 02:27:36;;;;;;;3.90;2.97;;;16.30;96.30;;;;;;9964333;29;20454;-62
2022/10/05 02:33:07;;;;;;;4.97;3.10;;;16.30;96.30;;;;;;9964294;29;20038;-64
2022/10/05 02:38:52;;;;;;;4.55;3.00;;;16.30;96.30;;;;;;9963444;29;20065;-64
2022/10/05 02:44:27;;;;;;;3.80;2.80;;;16.30;96.30;;;;;;9963786;29;20062;-62
2022/10/05 02:49:59;;;;;;;4.82;3.30;;;16.30;96.30;;;;;;9959494;29;20408;-62
2022/10/05 02:55:29;;;;;;;5.30;3.10;;;16.30;96.30;;;;;;9965663;29;20266;-62
2022/10/05 03:01:27;;;;;;;4.60;3.15;;;16.30;96.30;;;;;;9959262;29;20046;-63
2022/10/05 03:07:00;;;;;;;4.50;3.15;;;16.30;96.30;;;;;;9941226;29;20482;-64
2022/10/05 03:13:16;;;;;;;4.75;3.22;;;16.30;96.40;;;;;;9961229;29;20047;-62
2022/10/05 03:19:11;;;;;;;5.10;3.22;;;16.30;96.40;;;;;;9907762;29;20054;-66
2022/10/05 03:24:34;;;;;;;3.47;2.70;;;16.30;96.40;;;;;;9962017;29;20042;-62
2022/10/05 03:30:03;;;;;;;6.05;3.20;;;16.20;96.40;;;;;;9963187;29;20062;-62
2022/10/05 03:35:52;;;;;;;4.72;2.80;;;16.20;96.40;;;;;;9962519;29;20266;-63
2022/10/05 03:41:31;;;;;;;4.45;3.13;;;16.20;96.40;;;;;;9961184;29;20047;-65
2022/10/05 03:47:18;;;;;;;4.97;3.08;;;16.20;96.40;;;;;;9961229;29;20042;-63
2022/10/05 03:53:01;;;;;;;4.45;3.03;;;16.20;96.40;;;;;;9961776;29;20141;-66
2022/10/05 03:58:28;;;;;;;4.93;3.03;;;16.20;96.40;;;;;;9964643;29;20046;-62
2022/10/05 04:03:51;;;;;;;4.68;3.67;;;16.20;96.40;;;;;;9963234;29;20050;-63
2022/10/05 04:09:22;;;;;;;4.88;2.78;;;16.20;96.40;;;;;;9962181;29;20405;-62
2022/10/05 04:14:52;;;;;;;3.90;3.00;;;16.20;96.40;;;;;;9958836;29;20503;-63
2022/10/05 04:20:32;;;;;;;4.97;2.95;;;16.20;96.40;;;;;;9965841;29;20464;-63
2022/10/05 04:25:55;;;;;;;4.80;3.00;;;16.20;96.40;;;;;;9962157;29;20043;-62
2022/10/05 04:31:52;;;;;;;4.93;3.33;;;16.20;96.40;;;;;;9960556;29;20042;-62
2022/10/05 04:37:48;;;;;;;6.07;3.00;;;16.20;96.40;;;;;;9962777;29;20117;-62
2022/10/05 04:43:37;;;;;;;6.10;3.20;;;16.20;96.40;;;;;;9960481;29;20488;-62
2022/10/05 04:49:12;;;;;;;4.45;3.10;;;16.20;96.40;;;;;;9956119;29;20124;-62
2022/10/05 04:55:01;;;;;;;4.53;3.22;;;16.10;96.40;;;;;;9960097;29;20121;-63
2022/10/05 05:00:24;;;;;;;4.57;3.10;;;16.20;96.40;;;;;;9958175;29;20046;-64
2022/10/05 05:06:15;;;;;;;5.07;2.97;;;16.10;96.40;;;;;;9955121;29;20050;-63
2022/10/05 05:12:06;;;;;;;4.65;2.92;;;16.10;96.40;;;;;;9959832;29;20046;-63
2022/10/05 05:17:32;;;;;;;5.03;3.20;;;16.10;96.70;;;;;;9957606;29;20079;-64
2022/10/05 05:23:15;;;;;;;4.03;2.92;;;16.10;96.40;;;;;;9961181;29;20042;-62
2022/10/05 05:28:41;;;;;;;5.00;3.08;;;16.10;96.40;;;;;;9962522;29;20095;-63
2022/10/05 05:34:33;;;;;;;5.25;3.30;;;16.10;96.40;;;;;;9963677;29;20030;-62
2022/10/05 05:40:02;;;;;;;4.38;3.60;;;16.10;96.40;;;;;;9964267;29;20035;-62
2022/10/05 05:45:52;;;;;;;4.85;3.35;;;16.10;96.40;;;;;;9965581;29;20052;-63
2022/10/05 05:51:17;;;;;;;3.92;2.75;;;16.10;96.40;;;;;;9954030;29;20034;-64
2022/10/05 05:56:57;;;;;;;5.10;2.97;;;16.10;96.40;;;;;;9969173;29;20034;-70
2022/10/05 06:02:23;;;;;;;5.38;3.03;;;16.10;96.40;;;;;;9960747;29;20046;-63
2022/10/05 06:07:43;;;;;;;6.50;3.28;;;16.10;96.40;;;;;;9948452;29;20034;-62
2022/10/05 06:13:10;;;;;;;3.10;2.60;;;16.10;96.40;;;;;;9959798;29;20047;-65
2022/10/05 06:18:31;;;;;;;3.95;3.22;;;16.10;96.40;;;;;;9963173;29;20037;-62
2022/10/05 06:24:12;;;;;;;5.90;3.38;;;16.10;96.40;;;;;;9966139;29;20129;-63
2022/10/05 06:30:00;;;;;;;5.40;3.15;;;16.10;96.40;;;;;;9967076;29;20042;-64
2022/10/05 06:35:37;;;;;;;6.10;3.28;;;16.10;96.40;;;;;;9963295;29;20042;-63
2022/10/05 06:41:22;;;;;;;5.93;3.00;;;16.10;96.40;;;;;;9961688;29;20054;-63
2022/10/05 06:47:06;;;;;;;5.22;3.28;;;16.10;96.40;;;;;;9906530;29;20141;-66
2022/10/05 06:52:48;;;;;;;4.75;3.08;;;16.10;96.40;;;;;;9869341;29;20082;-65
2022/10/05 06:58:43;;;;;;;4.10;3.08;;;16.10;96.40;;;;;;9866692;29;20046;-64
2022/10/05 07:04:25;;;;;;;5.00;3.28;;;16.10;96.40;;;;;;9858629;29;20177;-64
2022/10/05 07:10:22;;;;;;;5.57;3.47;;;16.10;96.30;;;;;;9864117;29;20050;-64
2022/10/05 07:16:12;;;;;;;4.30;3.42;;;16.10;96.30;;;;;;9865661;29;20544;-65
2022/10/05 07:22:23;;;;;;;3.03;2.42;;;16.10;96.30;;;;;;9862693;29;20432;-64
2022/10/05 07:28:05;;;;;;;3.97;2.60;;;16.10;96.30;;;;;;9849270;29;20051;-65
2022/10/05 07:33:46;;;;;;;4.20;3.05;;;16.10;96.30;;;;;;9862890;29;20312;-64
2022/10/05 07:39:19;;;;;;;3.03;2.55;;;16.10;96.30;;;;;;9871398;29;20858;-64
2022/10/05 07:44:52;;;;;;;4.25;2.42;;;16.20;96.30;;;;;;9873333;29;20168;-65
2022/10/05 07:50:37;;;;;;;4.85;3.08;;;16.20;96.30;;;;;;9870339;29;20471;-63
2022/10/05 07:56:14;;;;;;;5.25;3.03;;;16.30;96.30;;;;;;9876574;29;20483;-67
2022/10/05 08:01:39;;;;;;;8.70;4.22;;;16.20;96.20;;;;;;9878646;29;20050;-69
2022/10/05 08:07:03;;;;;;;6.65;4.18;;;16.20;96.40;;;;;;9868315;29;20524;-62
2022/10/05 08:12:32;;;;;;;7.88;4.35;;;16.20;96.60;;;;;;9883410;29;20291;-66
2022/10/05 08:17:58;;;;;;;10.68;3.92;;;16.10;96.80;;;;;;9867087;29;20134;-63
2022/10/05 08:23:24;;;;;;;6.65;4.10;;;16.10;96.70;;;;;;9874794;29;20054;-63
2022/10/05 08:29:13;;;;;;;7.45;3.60;;;16.00;96.80;;;;;;9869780;29;20311;-63
2022/10/05 08:34:52;;;;;;;6.53;3.70;;;16.00;96.90;;;;;;9875660;29;20058;-63
2022/10/05 08:40:18;;;;;;;6.40;4.05;;;16.10;97.10;;;;;;9872871;29;20088;-62
2022/10/05 08:46:08;;;;;;;4.63;3.38;;;16.10;96.90;;;;;;9871305;29;20541;-63
2022/10/05 08:51:36;;;;;;;6.13;3.95;;;16.10;97.00;;;;;;9870097;29;20103;-64
2022/10/05 08:57:35;;;;;;;4.95;2.95;;;16.10;96.80;;;;;;9873624;29;20038;-61
2022/10/05 09:03:25;;;;;;;4.43;2.80;;;16.20;96.80;;;;;;9886546;29;20112;-64
2022/10/05 09:09:05;;;;;;;4.20;3.00;;;16.20;96.70;;;;;;9885711;29;20034;-63
2022/10/05 09:15:12;;;;;;;3.90;2.72;;;16.20;96.70;;;;;;9892500;29;20062;-62
2022/10/05 09:21:06;;;;;;;5.70;2.50;;;16.20;96.80;;;;;;9903773;29;20612;-65
2022/10/05 09:27:18;;;;;;;3.45;2.90;;;16.30;96.40;;;;;;9883745;29;20889;-65
2022/10/05 09:39:55;;;;;;;4.90;3.05;;;16.40;96.50;;;;;;9924485;24;20923;-65
2022/10/05 09:45:46;;;;;;;5.47;3.17;;;16.40;96.40;;;;;;9925917;24;20058;-65
2022/10/05 09:51:45;;;;;;;5.25;3.22;;;16.10;96.30;;;;;;9896851;29;20157;-68
2022/10/05 09:58:11;;;;;;;6.15;3.58;;;16.70;96.60;;;;;;9892480;29;20054;-66
2022/10/05 10:04:28;;;;;;;6.38;3.28;;;16.00;96.40;;;;;;9903138;29;20464;-66
2022/10/05 10:10:42;;;;;;;6.78;3.60;;;16.30;96.40;;;;;;9881025;29;20062;-65
2022/10/05 10:16:29;;;;;;;7.88;4.57;;;16.30;96.40;;;;;;9795210;29;20749;-66
2022/10/05 10:22:27;;;;;;;7.82;4.00;;;16.40;96.50;;;;;;9798690;29;21074;-66
2022/10/05 10:28:05;;;;;;;;;;;16.40;96.20;;;;;;9765702;29;20497;-66
2022/10/05 10:33:40;;;;;;;5.70;3.80;;;16.50;96.40;;;;;;9899511;29;20206;-65
2022/10/05 10:39:21;;;;;;;4.40;3.53;;;16.50;96.10;;;;;;9893125;29;20037;-64
2022/10/05 10:45:11;;;;;;;5.38;3.60;;;16.60;96.00;;;;;;9904598;29;20224;-66
2022/10/05 10:50:49;;;;;;;5.25;3.83;;;16.70;95.90;;;;;;9875662;29;20510;-65
2022/10/05 10:56:54;;;;;;;7.57;4.97;;;16.80;95.80;;;;;;9872153;29;20042;-65
2022/10/05 11:02:43;;;;;;;5.05;3.67;;;17.10;95.70;;;;;;9871908;29;20423;-64
2022/10/05 11:08:42;;;;;;;7.07;3.25;;;16.80;95.50;;;;;;9871750;29;20306;-65
2022/10/05 11:14:19;;;;;;;4.07;3.17;;;17.00;95.50;;;;;;9919265;24;20225;-63
2022/10/05 11:20:04;;;;;;;6.55;2.80;;;17.00;95.50;;;;;;9874220;29;20452;-66
2022/10/05 11:25:50;;;;;;;4.90;2.47;;;17.20;95.50;;;;;;9870988;29;20556;-70
2022/10/05 11:31:31;;;;;;;4.45;2.75;;;17.00;95.60;;;;;;9879632;29;20638;-64
2022/10/05 11:37:09;;;;;;;4.30;2.95;;;16.90;95.60;;;;;;9879610;29;20050;-63
2022/10/05 11:42:39;;;;;;;4.95;2.83;;;17.00;95.70;;;;;;9875620;29;20054;-67
2022/10/05 11:48:08;;;;;;;6.32;3.13;;;17.00;95.70;;;;;;9866538;29;20026;-64
2022/10/05 11:53:37;;;;;;;4.93;3.08;;;16.90;95.80;;;;;;9871912;29;20437;-63
2022/10/05 11:59:17;;;;;;;7.00;3.25;;;16.90;95.90;;;;;;9867506;29;20042;-64
2022/10/05 12:05:14;;;;;;;4.97;3.78;;;16.80;96.00;;;;;;9858748;29;20136;-64
2022/10/05 12:10:41;;;;;;;6.75;3.47;;;16.80;96.20;;;;;;9867271;29;20078;-64
2022/10/05 12:16:27;;;;;;;4.68;3.20;;;16.80;96.30;;;;;;9868385;29;20051;-64
2022/10/05 12:22:02;;;;;;;4.80;3.83;;;16.80;96.40;;;;;;9865062;29;20674;-64
2022/10/05 12:27:25;;;;;;;6.22;4.25;;;16.80;96.30;;;;;;9867889;29;20038;-66
2022/10/05 12:32:50;;;;;;;7.40;4.60;;;16.80;96.30;;;;;;9866278;29;20042;-65
2022/10/05 12:38:28;;;;;;;7.88;4.50;;;16.80;96.40;;;;;;9865041;29;20046;-64
2022/10/05 12:44:07;;;;;;;5.28;4.40;;;16.90;96.60;;;;;;9860508;29;20110;-67
2022/10/05 12:50:21;;;;;;;5.13;4.05;;;16.90;96.70;;;;;;9868043;29;20485;-70
2022/10/05 12:56:02;;;;;;;9.30;4.00;;;17.00;96.60;;;;;;9840489;29;20046;-68
2022/10/05 13:01:33;;;;;;;6.30;4.53;;;17.10;96.50;;;;;;9862574;29;20042;-65
2022/10/05 13:07:12;;;;;;;5.68;3.97;;;17.10;96.30;;;;;;9854661;29;20273;-65
2022/10/05 13:13:23;;;;;;;5.95;3.70;;;17.10;96.30;;;;;;9863703;29;20031;-63
2022/10/05 13:18:53;;;;;;;4.63;3.30;;;17.10;96.50;;;;;;9856190;29;20889;-63
2022/10/05 13:24:43;;;;;;;5.57;3.60;;;17.20;96.30;;;;;;9862287;29;20050;-68
2022/10/05 13:30:16;;;;;;;6.28;4.05;;;17.30;96.30;;;;;;9846269;29;20042;-62
2022/10/05 13:35:51;;;;;;;9.80;3.40;;;17.40;96.20;;;;;;9861608;29;20046;-65
2022/10/05 13:41:25;;;;;;;7.07;3.53;;;17.40;96.00;;;;;;9862951;29;20506;-62
2022/10/05 13:47:11;;;;;;;8.93;3.50;;;17.50;96.00;;;;;;9864428;29;20935;-62
2022/10/05 13:53:11;;;;;;;4.70;3.50;;;17.50;95.90;;;;;;9865270;29;20062;-66
2022/10/05 13:58:46;;;;;;;6.80;3.38;;;17.60;95.80;;;;;;9879444;29;20503;-63
2022/10/05 14:04:19;;;;;;;5.30;3.33;;;17.50;95.80;;;;;;9872340;29;20383;-62
2022/10/05 14:09:48;;;;;;;3.90;2.80;;;17.50;95.90;;;;;;9872231;29;20284;-61
2022/10/05 14:15:27;;;;;;;4.93;3.17;;;17.50;96.00;;;;;;9872196;29;20050;-65
2022/10/05 14:21:06;;;;;;;5.38;2.95;;;17.50;96.10;;;;;;9869456;29;20440;-63
2022/10/05 14:26:26;;;;;;;5.20;2.72;;;17.50;96.30;;;;;;9869742;29;20050;-61
2022/10/05 14:32:12;;;;;;;6.50;2.78;;;17.40;96.20;;;;;;9863090;29;20847;-62
2022/10/05 14:37:43;;;;;;;8.63;3.20;;;17.40;96.30;;;;;;9857119;29;20145;-63
2022/10/05 14:43:43;;;;;;;3.85;2.78;;;17.40;96.30;;;;;;9865120;29;20239;-62
2022/10/05 14:49:29;;;;;;;3.30;2.60;;;17.40;96.50;;;;;;9870040;29;20565;-62
2022/10/05 14:55:20;;;;;;;5.18;3.13;;;17.40;96.60;;;;;;9870866;29;20113;-60
2022/10/05 15:00:57;;;;;;;5.28;2.58;;;17.40;96.60;;;;;;9867345;29;20031;-61
2022/10/05 15:06:45;;;;;;;5.35;3.20;;;17.40;96.80;;;;;;9883092;23;20042;-61
2022/10/05 15:12:06;;;;;;;5.53;3.53;;;17.30;96.90;;;;;;9895138;29;20045;-61
2022/10/05 15:17:33;;;;;;;3.90;3.35;;;17.30;96.80;;;;;;9901537;29;20054;-62
2022/10/05 15:23:15;;;;;;;4.47;3.47;;;17.30;96.80;;;;;;9901251;29;21841;-61
2022/10/05 15:28:56;;;;;;;4.30;3.38;;;17.30;96.80;;;;;;9920892;29;20046;-62
2022/10/05 15:34:43;;;;;;;6.78;3.20;;;17.30;97.10;;;;;;9903250;29;20041;-66
2022/10/05 15:40:13;;;;;;;6.57;2.80;;;17.30;97.00;;;;;;9904216;29;20035;-61
2022/10/05 15:45:38;;;;;;;4.30;3.03;;;17.30;96.90;;;;;;9901294;29;20049;-65
2022/10/05 15:51:15;;;;;;;4.97;2.70;;;17.30;96.90;;;;;;9908203;29;20049;-60
2022/10/05 15:56:38;;;;;;;5.93;3.00;;;17.30;97.00;;;;;;9908568;29;20065;-61
2022/10/05 16:02:03;;;;;;;3.67;2.40;;;17.20;97.00;;;;;;9905564;29;20082;-60
2022/10/05 16:13:32;;;;;;;4.40;2.70;;;17.20;97.00;;;;;;9900271;29;20145;-61
2022/10/05 16:19:19;;;;;;;5.13;2.75;;;17.20;97.10;;;;;;9903991;29;20128;-60
2022/10/05 16:25:10;;;;;;;5.90;2.10;;;17.20;97.00;;;;;;9909667;29;20049;-62
2022/10/05 16:30:58;;;;;;;7.03;2.90;;;17.20;97.00;;;;;;9906196;29;20299;-60
2022/10/05 16:36:46;;;;;;;3.87;2.80;;;17.20;97.10;;;;;;9905214;29;20062;-60
2022/10/05 16:42:15;;;;;;;3.28;2.35;;;17.20;97.00;;;;;;9902971;29;20509;-60
2022/10/05 16:48:04;;;;;;;4.88;2.78;;;17.20;97.00;;;;;;9901585;29;20041;-61
2022/10/05 16:53:41;;;;;;;3.10;2.30;;;17.10;96.90;;;;;;9895877;29;20523;-60
2022/10/05 16:59:19;;;;;;;7.07;2.67;;;17.10;97.00;;;;;;9890486;29;20034;-62
2022/10/05 17:05:27;;;;;;;5.93;2.93;;;17.10;97.00;;;;;;9881856;29;20058;-61
2022/10/05 17:11:10;;;;;;;3.03;2.03;;;17.10;96.80;;;;;;9886444;29;20842;-61
2022/10/05 17:16:46;;;;;;;5.85;2.65;;;17.10;96.80;;;;;;9883369;29;20037;-61
2022/10/05 17:22:35;;;;;;;2.95;2.33;;;17.10;96.90;;;;;;9885883;29;20149;-61
2022/10/05 17:28:11;;;;;;;5.70;2.58;;;17.30;96.80;;;;;;9937134;29;20065;-61
2022/10/05 17:33:32;;;;;;;6.82;3.15;;;17.10;97.10;;;;;;9995657;29;20087;-60
2022/10/05 17:39:13;;;;;;;4.68;2.60;;;17.10;96.80;;;;;;9977729;29;20031;-61
2022/10/05 17:44:32;;;;;;;2.85;2.30;;;17.10;96.70;;;;;;9982377;29;20408;-61
2022/10/05 17:55:43;;;;;;;5.07;2.30;;;17.10;96.70;;;;;;9986125;29;20403;-60
2022/10/05 18:01:12;;;;;;;2.65;2.40;;;17.10;96.70;;;;;;9991162;29;20034;-61
2022/10/05 18:06:53;;;;;;;4.15;2.17;;;17.10;96.70;;;;;;9980721;29;20453;-62
2022/10/05 18:12:15;;;;;;;5.15;2.45;;;17.10;96.70;;;;;;9974458;29;20547;-61
2022/10/05 18:17:45;;;;;;;7.55;2.40;;;17.10;96.70;;;;;;9978060;29;20039;-62
2022/10/05 18:23:08;;;;;;;3.55;2.30;;;17.10;96.70;;;;;;9973531;29;20042;-61
2022/10/05 18:28:59;;;;;;;5.95;2.25;;;17.00;96.60;;;;;;9985414;29;20038;-62
2022/10/05 18:34:44;;;;;;;4.38;2.20;;;17.00;96.50;;;;;;9982834;29;20117;-61
2022/10/05 18:40:10;;;;;;;2.53;2.10;;;17.00;96.50;;;;;;9981911;29;20471;-61
2022/10/05 18:45:40;;;;;;;4.28;2.20;;;17.00;96.60;;;;;;9991598;29;20437;-61
2022/10/05 18:51:09;;;;;;;3.40;2.35;;;17.00;96.60;;;;;;9991790;29;20046;-61
2022/10/05 18:56:42;;;;;;;3.85;2.25;;;17.00;96.60;;;;;;9984177;29;20030;-61
2022/10/05 19:02:25;;;;;;;3.25;1.90;;;17.00;96.60;;;;;;9992460;29;20046;-67
2022/10/05 19:07:50;;;;;;;3.70;1.83;;;17.00;96.50;;;;;;9985068;29;20050;-61
2022/10/05 19:13:29;;;;;;;6.22;2.20;;;17.00;96.60;;;;;;9982527;29;20022;-61
2022/10/05 19:19:03;;;;;;;4.43;2.10;;;17.00;96.50;;;;;;9986190;29;20050;-60
2022/10/05 19:24:50;;;;;;;5.90;2.25;;;17.00;96.60;;;;;;9992168;29;20069;-60
2022/10/05 19:30:10;;;;;;;2.88;2.28;;;17.00;96.60;;;;;;9993428;29;20054;-61
2022/10/05 19:35:57;;;;;;;2.60;2.00;;;17.00;96.60;;;;;;9989683;29;20038;-61
2022/10/05 19:41:19;;;;;;;3.42;2.03;;;17.00;96.60;;;;;;9979849;29;20480;-61
2022/10/05 19:46:59;;;;;;;2.10;1.90;;;17.00;96.70;;;;;;9985397;29;20401;-60
2022/10/05 19:52:39;;;;;;;3.80;1.80;;;17.00;96.60;;;;;;9981660;29;20041;-68
2022/10/05 19:58:00;;;;;;;2.70;2.03;;;17.00;96.70;;;;;;9988134;29;20491;-65
2022/10/05 20:03:26;;;;;;;4.40;2.03;;;17.00;96.70;;;;;;9985097;29;20046;-64
2022/10/05 20:08:48;;;;;;;2.92;1.98;;;17.00;96.70;;;;;;9976117;29;20788;-61
2022/10/05 20:14:10;;;;;;;3.30;2.30;;;17.00;96.80;;;;;;9989376;29;20488;-63
2022/10/05 20:25:16;;;;;;;11.88;2.40;;;16.90;97.10;;;;;;9970992;29;20420;-60
2022/10/05 20:30:35;;;;;;;2.30;1.85;;;16.90;97.20;;;;;;9978533;29;20030;-60
2022/10/05 20:35:55;;;;;;;3.15;2.03;;;16.90;97.30;;;;;;9985434;29;20492;-60
2022/10/05 20:41:15;;;;;;;2.65;1.98;;;16.80;97.30;;;;;;9987904;29;20042;-61
2022/10/05 20:46:34;;;;;;;2.53;1.75;;;16.80;97.40;;;;;;9986729;29;20057;-60
2022/10/05 20:51:54;;;;;;;3.97;2.10;;;16.80;97.40;;;;;;9988483;29;20053;-60
2022/10/05 20:57:14;;;;;;;2.60;1.58;;;16.80;97.50;;;;;;9988252;29;20037;-60
2022/10/05 21:02:33;;;;;;;2.78;1.75;;;16.80;97.50;;;;;;9989885;29;20454;-61
2022/10/05 21:07:52;;;;;;;4.10;1.60;;;16.70;97.50;;;;;;9980755;29;20057;-67
2022/10/05 21:13:11;;;;;;;2.03;1.50;;;16.70;97.50;;;;;;9982750;29;20041;-60
2022/10/05 21:18:32;;;;;;;1.98;1.35;;;16.70;97.60;;;;;;9978264;29;20038;-60
2022/10/05 21:23:51;;;;;;;2.72;1.55;;;16.70;97.60;;;;;;9978607;29;20501;-67
2022/10/05 21:29:12;;;;;;;2.22;1.50;;;16.70;97.60;;;;;;9982025;29;20042;-64
2022/10/05 21:34:31;;;;;;;3.00;1.33;;;16.70;97.60;;;;;;9971435;29;20050;-61
2022/10/05 21:39:50;;;;;;;1.73;1.40;;;16.60;97.60;;;;;;9984824;29;20551;-65
2022/10/05 21:45:09;;;;;;;3.20;1.60;;;16.60;97.60;;;;;;9981917;29;20051;-60
2022/10/05 21:50:29;;;;;;;1.30;1.20;;;16.60;97.60;;;;;;9985070;29;20042;-61
2022/10/05 21:55:49;;;;;;;3.25;1.27;;;16.60;97.60;;;;;;9979108;29;20080;-61
2022/10/05 22:01:09;;;;;;;2.92;1.38;;;16.60;97.70;;;;;;9985126;29;20415;-60
2022/10/05 22:06:29;;;;;;;1.80;1.33;;;16.50;97.60;;;;;;9990091;29;20461;-60
2022/10/05 22:11:49;;;;;;;0.93;0.70;;;16.50;97.60;;;;;;9990025;29;20091;-60
2022/10/05 22:17:23;;;;;;;1.27;1.00;;;16.50;97.60;;;;;;9991790;29;20121;-60
2022/10/05 22:22:42;;;;;;;3.00;1.02;;;16.50;97.60;;;;;;9985615;29;20038;-61
2022/10/05 22:28:02;;;;;;;1.30;1.00;;;16.50;97.60;;;;;;9994172;29;20030;-60
2022/10/05 22:33:22;;;;;;;1.90;1.10;;;16.50;97.50;;;;;;9992586;29;20512;-61
2022/10/05 22:38:41;;;;;;;1.50;0.90;;;16.50;97.50;;;;;;9994398;29;20578;-61
2022/10/05 22:44:01;;;;;;;1.30;0.80;;;16.40;97.50;;;;;;9993159;29;20200;-61
2022/10/05 22:49:21;;;;;;;1.80;0.65;;;16.40;97.50;;;;;;9981345;29;20043;-61
2022/10/05 22:54:40;;;;;;;1.08;0.80;;;16.40;97.50;;;;;;9992159;29;20034;-60
2022/10/05 22:59:59;;;;;;;1.55;0.88;;;16.40;97.50;;;;;;9992807;29;20536;-61
2022/10/05 23:05:18;;;;;;;2.40;0.82;;;16.40;97.50;;;;;;9992814;29;20508;-61
2022/10/05 23:10:37;;;;;;;2.17;0.80;;;16.40;97.50;;;;;;9988557;29;20050;-61
2022/10/05 23:15:57;;;;;;;2.42;0.75;;;16.40;97.50;;;;;;9987206;29;20416;-61
2022/10/05 23:21:18;;;;;;;1.85;0.82;;;16.30;97.50;;;;;;9990135;29;20033;-60
2022/10/05 23:26:38;;;;;;;2.47;0.70;;;16.30;97.50;;;;;;9973154;29;22087;-60
2022/10/05 23:31:57;;;;;;;1.65;0.63;;;16.30;97.50;;;;;;9974493;29;20045;-61
2022/10/05 23:37:18;;;;;;;1.10;0.75;;;16.30;97.50;;;;;;9984543;29;20129;-61
2022/10/05 23:42:38;;;;;;;0.90;0.60;;;16.30;97.50;;;;;;9982181;29;20053;-62
2022/10/05 23:47:57;;;;;;;2.50;0.73;;;16.30;97.50;;;;;;9976121;29;20038;-61
2022/10/05 23:53:17;;;;;;;1.33;0.63;;;16.20;97.50;;;;;;9971992;29;20034;-62
2022/10/05 23:58:36;;;;;;;2.17;0.60;;;16.20;97.50;;;;;;9978318;29;20420;-60
